METAR Data

Data at: 1137 UTC 24 May 2022

METAR for:KEWB (New Bedford Rgnl, MA, US)
Text:KEWB 241053Z 03012KT 10SM BKN100 13/06 A3030 RMK AO2 SLP260 T01280061
Temperature: 12.8°C ( 55°F)
Dewpoint: 6.1°C ( 43°F) [RH = 64%]
Pressure (altimeter):30.30 inches Hg (1026.2 mb) [Sea level pressure: 1026.0 mb]
Winds:from the NNE (30 degrees) at 14 MPH (12 knots; 6.2 m/s)
Visibility:10 or more sm (16+ km)
Ceiling:10000 feet AGL
Clouds: broken clouds at 10000 feet AGL